Cape Romanzof LRRS Airport Cape Romanzof US
ICAO: PACZ
IATA:
Category: Medium
Scheduled Services:

Elevation: 464 ft
TransAlt. 18000 ft.

Airport Communications:
ANCHORAGE ARTCC:124.5
ANCHORAGE CNTR:132.5
KENAI RDO:122.1
INFO:126.2

PACZ Zoom In..

Runways:

(A) RW 02 length 3925 ft width 161 ft
---- / hdg 16

(B) RW 20 length 3925 ft width 161 ft
---- / hdg 196

Location; PACZ
Day. 20 / Time. 09.55 Zulu
* Altimeter: 29.51
* Temperature: -01° c. -30.2°f.
* Wind from: 070° Speed 17 kn with Gusts up to 34 kn.
Dewpoint: -05° c.
Visibility: 10 Statute Miles.
Clouds: Clear (automated report).

PACZ 200955Z AUTO 07017G34KT 10SM CLR M01/M05 A2951 RMK AO2 SLP999 T10151054


Wind From 070°
Speed 17 kn.

  YouTube Music Video
 
jpsmedia.com for Web Design  worldairports.se 2018   terms of use